Time;durP1;ratioP1;P1;durP2;ratioP2;P2;SDS_P1;SDS_P2;PMS_P1;PMS_P2;Temp;Humidity;BMP_temperature;BMP_pressure;BME280_temperature;BME280_humidity;BME280_pressure;Samples;Min_cycle;Max_cycle;Signal;HPM_P1;HPM_P2
2021/06/02 00:00:39;;;;;;;4.40;3.83;;;;;;;16.99;43.70;96448.44;5051865;28;20206;-70
2021/06/02 00:03:05;;;;;;;4.70;3.73;;;;;;;17.01;43.50;96453.50;5053346;28;20175;-70
2021/06/02 00:05:31;;;;;;;4.90;4.30;;;;;;;16.80;44.34;96441.34;5035024;28;20179;-70
2021/06/02 02:26:02;;;;;;;4.93;4.00;;;;;;;15.08;46.89;96422.63;5029641;28;20423;-69
2021/06/02 02:28:50;;;;;;;4.40;3.53;;;;;;;15.02;47.82;96431.31;5038994;28;20458;-68
2021/06/02 02:31:34;;;;;;;4.03;3.63;;;;;;;14.94;47.90;96439.44;5058323;28;21132;-70
2021/06/02 02:34:32;;;;;;;4.07;3.57;;;;;;;15.02;47.55;96432.16;5054636;28;20452;-69
2021/06/02 02:37:04;;;;;;;5.00;3.80;;;;;;;15.02;47.36;96431.31;5052993;28;20433;-69
2021/06/02 02:40:07;;;;;;;3.83;3.43;;;;;;;14.81;48.05;96440.19;5053305;28;20936;-68
2021/06/02 02:42:45;;;;;;;7.47;4.00;;;;;;;14.77;48.06;96450.34;5039935;28;20454;-69
2021/06/02 02:45:35;;;;;;;5.47;3.23;;;;;;;14.44;49.05;96449.13;5051585;28;20829;-69
2021/06/02 02:48:20;;;;;;;5.07;3.43;;;;;;;14.33;49.27;96447.06;5053151;28;20836;-68
2021/06/02 02:50:58;;;;;;;5.60;3.43;;;;;;;14.35;48.84;96447.69;5053609;28;20420;-69
2021/06/02 02:53:29;;;;;;;5.70;3.20;;;;;;;14.40;48.53;96442.66;5036201;28;20436;-69
2021/06/02 02:55:59;;;;;;;5.57;3.10;;;;;;;14.51;48.32;96451.00;5024324;28;20431;-70
2021/06/02 02:58:36;;;;;;;4.90;3.90;;;;;;;14.58;47.79;96451.84;5036198;28;20524;-69
2021/06/02 03:01:07;;;;;;;5.03;3.43;;;;;;;14.61;47.70;96448.81;5035429;28;20442;-69
2021/06/02 03:03:41;;;;;;;4.60;3.83;;;;;;;14.59;48.14;96446.41;5041919;28;20424;-69
2021/06/02 03:06:25;;;;;;;4.80;3.50;;;;;;;14.51;48.63;96453.66;5030383;28;20455;-70
2021/06/02 03:09:12;;;;;;;4.90;3.80;;;;;;;14.58;48.42;96457.94;5052543;28;20791;-69
2021/06/02 03:12:15;;;;;;;4.73;3.80;;;;;;;14.61;48.23;96461.22;5040996;28;20418;-70
2021/06/02 03:15:00;;;;;;;4.30;3.90;;;;;;;14.46;49.04;96464.78;5033934;28;20464;-70
2021/06/02 03:17:42;;;;;;;4.50;3.40;;;;;;;14.36;48.82;96469.59;5033453;28;20422;-70
2021/06/02 03:20:08;;;;;;;4.40;3.87;;;;;;;14.27;49.21;96461.03;5049902;28;20436;-69
2021/06/02 03:22:46;;;;;;;12.23;3.80;;;;;;;14.26;48.97;96465.47;5045656;28;20814;-68
2021/06/02 03:25:18;;;;;;;7.00;4.13;;;;;;;14.32;48.79;96463.88;5047543;28;20512;-69
2021/06/02 03:28:11;;;;;;;6.73;4.10;;;;;;;14.35;48.99;96467.97;5028249;28;20442;-69
2021/06/02 03:30:53;;;;;;;5.33;3.50;;;;;;;14.40;49.07;96476.91;5042233;28;20406;-69
2021/06/02 03:34:15;;;;;;;9.30;3.87;;;;;;;14.43;49.18;96471.25;5044038;28;20944;-69
2021/06/02 03:37:11;;;;;;;4.30;3.60;;;;;;;14.47;48.83;96461.13;4974569;28;20425;-69
2021/06/02 03:40:01;;;;;;;8.00;3.97;;;;;;;14.44;48.48;96469.44;4984424;28;20408;-68
2021/06/02 03:42:54;;;;;;;4.17;3.60;;;;;;;14.38;48.48;96473.66;4965909;28;20486;-69
2021/06/02 03:45:31;;;;;;;8.83;4.33;;;;;;;14.35;48.71;96476.69;4989030;28;20816;-69
2021/06/02 03:48:26;;;;;;;5.60;3.80;;;;;;;14.26;48.89;96478.66;4990123;28;20447;-70
2021/06/02 03:51:01;;;;;;;6.83;4.60;;;;;;;14.27;49.12;96479.47;4969395;28;20524;-69
2021/06/02 03:53:45;;;;;;;4.33;3.80;;;;;;;14.38;48.55;96478.09;4975505;28;20926;-69
2021/06/02 03:56:47;;;;;;;5.00;4.00;;;;;;;14.41;48.69;96477.72;4990677;28;20432;-68
2021/06/02 03:59:39;;;;;;;7.23;4.00;;;;;;;14.46;48.47;96485.88;4974230;28;20460;-68
2021/06/02 04:02:23;;;;;;;4.33;3.93;;;;;;;14.47;48.30;96479.59;4980552;28;20495;-69
2021/06/02 04:05:15;;;;;;;9.73;5.20;;;;;;;14.33;48.85;96491.06;4990132;28;20424;-69
2021/06/02 04:07:52;;;;;;;299.50;55.47;;;;;;;14.36;48.87;96478.31;4977956;28;20444;-69
2021/06/02 04:10:38;;;;;;;211.30;37.53;;;;;;;14.48;48.58;96477.75;4997314;28;20436;-70
2021/06/02 04:13:40;;;;;;;28.33;7.53;;;;;;;14.57;48.43;96487.13;5047677;28;20437;-69
2021/06/02 04:16:19;;;;;;;8.57;4.83;;;;;;;14.65;48.39;96486.16;5051912;28;20447;-69
2021/06/02 04:18:46;;;;;;;13.53;5.50;;;;;;;14.78;48.05;96480.97;5051519;28;20490;-69
2021/06/02 04:21:17;;;;;;;11.33;5.37;;;;;;;14.84;48.11;96490.75;5034571;28;20442;-69
2021/06/02 04:23:44;;;;;;;9.33;4.90;;;;;;;14.94;47.82;96481.66;5039940;28;20425;-70
2021/06/02 04:26:11;;;;;;;6.80;4.90;;;;;;;15.03;47.54;96498.91;5035435;28;20434;-69
2021/06/02 04:28:37;;;;;;;5.43;4.17;;;;;;;15.11;46.90;96493.50;5051684;28;20445;-70
2021/06/02 04:31:08;;;;;;;7.90;5.60;;;;;;;15.22;46.95;96496.56;5051282;28;20994;-69
2021/06/02 04:33:35;;;;;;;14.80;6.63;;;;;;;15.30;46.57;96493.72;5051457;28;20425;-69
2021/06/02 04:36:02;;;;;;;5.90;4.90;;;;;;;15.43;46.39;96499.03;5051227;28;20424;-69
2021/06/02 04:38:29;;;;;;;5.70;5.10;;;;;;;15.55;45.96;96494.00;5050947;28;20531;-69
2021/06/02 04:40:58;;;;;;;11.07;4.97;;;;;;;15.65;45.73;96501.50;5050407;28;21131;-69
2021/06/02 04:43:25;;;;;;;12.10;5.27;;;;;;;15.75;45.21;96498.47;5034846;28;20410;-70
2021/06/02 04:45:58;;;;;;;4.97;4.47;;;;;;;15.89;44.85;96504.59;5050529;28;20443;-69
2021/06/02 04:48:25;;;;;;;6.77;5.03;;;;;;;15.89;44.94;96500.13;5051437;28;20437;-69
2021/06/02 04:50:56;;;;;;;8.03;4.30;;;;;;;16.08;44.07;96501.13;5051619;28;20928;-70
2021/06/02 04:53:51;;;;;;;4.47;4.00;;;;;;;16.25;43.69;96498.88;5050284;28;20421;-71
2021/06/02 04:56:23;;;;;;;8.73;5.33;;;;;;;16.46;43.38;96506.78;5046481;28;20431;-68
2021/06/02 04:59:38;;;;;;;9.43;5.10;;;;;;;16.55;42.99;96505.53;5050940;28;20540;-70
2021/06/02 05:02:19;;;;;;;8.10;5.53;;;;;;;16.63;42.34;96510.63;4983881;28;20468;-69
2021/06/02 05:05:03;;;;;;;11.40;6.37;;;;;;;16.82;41.92;96514.19;4973744;28;20499;-68
2021/06/02 05:07:46;;;;;;;9.60;4.80;;;;;;;17.06;41.36;96516.38;4959975;28;20420;-70
2021/06/02 05:10:30;;;;;;;17.00;7.90;;;;;;;17.18;41.64;96512.06;4993472;28;20420;-70
2021/06/02 05:12:59;;;;;;;13.10;6.20;;;;;;;17.24;41.03;96524.47;4996704;28;20495;-70
2021/06/02 05:16:02;;;;;;;7.00;4.40;;;;;;;17.33;40.29;96515.25;5001184;28;20413;-69
2021/06/02 05:18:59;;;;;;;7.57;4.83;;;;;;;17.29;40.28;96521.97;4984676;28;20424;-69
2021/06/02 05:22:07;;;;;;;10.67;5.07;;;;;;;17.69;39.75;96522.75;4979718;28;21034;-70
2021/06/02 05:25:09;;;;;;;7.40;4.83;;;;;;;17.79;39.68;96523.91;4958045;28;20438;-70
2021/06/02 05:28:06;;;;;;;10.07;6.40;;;;;;;18.01;38.83;96520.13;4988215;28;20428;-69
2021/06/02 05:30:55;;;;;;;5.90;4.47;;;;;;;18.19;38.42;96528.13;4993997;28;20555;-70
2021/06/02 05:33:58;;;;;;;9.40;5.43;;;;;;;18.43;38.09;96520.34;4999436;28;20916;-69
2021/06/02 05:36:26;;;;;;;14.17;4.40;;;;;;;18.59;37.91;96524.25;4976752;28;20467;-69
2021/06/02 05:39:20;;;;;;;37.27;11.70;;;;;;;18.76;37.37;96532.47;5031003;28;20444;-70
2021/06/02 05:41:55;;;;;;;11.13;4.87;;;;;;;18.92;37.17;96524.94;5044387;28;20470;-70
2021/06/02 05:44:39;;;;;;;20.00;5.47;;;;;;;19.06;36.76;96531.75;5038746;28;20474;-70
2021/06/02 05:47:34;;;;;;;14.02;4.20;;;;;;;19.20;36.59;96527.09;5048205;28;20426;-68
2021/06/02 05:50:32;;;;;;;6.53;4.20;;;;;;;19.45;36.11;96529.63;5029075;28;20180;-70
2021/06/02 05:53:35;;;;;;;5.00;3.83;;;;;;;19.45;36.94;96515.53;5047828;28;20478;-69
2021/06/02 05:56:18;;;;;;;4.47;3.97;;;;;;;19.61;36.47;96522.03;5048664;28;20410;-68
2021/06/02 05:59:22;;;;;;;4.93;3.73;;;;;;;19.84;36.04;96515.16;5049754;28;20598;-69
2021/06/02 06:02:15;;;;;;;4.83;3.57;;;;;;;20.20;35.33;96519.53;5045695;28;20487;-67
2021/06/02 06:04:53;;;;;;;9.20;3.60;;;;;;;20.21;35.22;96518.47;5055252;28;20406;-68
2021/06/02 06:07:42;;;;;;;8.10;3.33;;;;;;;20.62;34.47;96513.25;5046922;28;20499;-69
2021/06/02 06:11:04;;;;;;;4.33;3.37;;;;;;;20.85;33.89;96514.28;5053544;28;20418;-69
2021/06/02 06:14:03;;;;;;;9.83;3.47;;;;;;;21.03;33.71;96515.97;5051679;28;20417;-68
2021/06/02 06:16:40;;;;;;;6.80;3.50;;;;;;;21.01;34.35;96516.22;5037382;28;20509;-69
2021/06/02 06:19:33;;;;;;;5.07;3.43;;;;;;;21.32;34.07;96514.13;5050400;28;20449;-70
2021/06/02 06:21:59;;;;;;;5.37;3.50;;;;;;;21.55;33.81;96509.72;5042976;28;20457;-70
2021/06/02 06:24:33;;;;;;;8.57;3.50;;;;;;;21.58;34.37;96514.59;5043432;28;20424;-68
2021/06/02 06:27:02;;;;;;;7.90;3.80;;;;;;;21.77;34.15;96517.09;5044149;28;20214;-67
2021/06/02 06:29:37;;;;;;;7.60;3.70;;;;;;;21.84;33.01;96509.72;5052508;28;20448;-68
2021/06/02 06:32:04;;;;;;;4.13;2.60;;;;;;;21.61;32.48;96522.16;5051638;28;20433;-68
2021/06/02 06:34:33;;;;;;;5.10;3.07;;;;;;;21.78;31.07;96521.38;5040373;28;20425;-68
2021/06/02 06:36:59;;;;;;;6.67;3.37;;;;;;;21.82;30.76;96516.38;5032122;28;20431;-70
2021/06/02 06:39:52;;;;;;;2.40;2.20;;;;;;;22.15;29.78;96518.22;5040423;28;20449;-69
2021/06/02 06:42:40;;;;;;;6.60;2.40;;;;;;;22.43;29.59;96519.19;5024536;28;20520;-69
2021/06/02 06:45:16;;;;;;;5.30;3.03;;;;;;;22.65;29.41;96513.88;5054445;28;20438;-69
2021/06/02 06:47:42;;;;;;;3.73;2.30;;;;;;;22.98;28.92;96522.88;5029215;28;20457;-70
2021/06/02 06:50:10;;;;;;;3.07;2.30;;;;;;;23.27;28.79;96519.22;5054556;28;20859;-70
2021/06/02 06:52:37;;;;;;;8.47;2.47;;;;;;;23.30;28.24;96516.03;5030938;28;20441;-69
2021/06/02 06:55:05;;;;;;;5.30;2.30;;;;;;;23.28;28.49;96510.13;5044062;28;20857;-69
2021/06/02 06:57:32;;;;;;;3.43;2.37;;;;;;;23.54;28.27;96507.72;5046978;28;20525;-68
2021/06/02 06:59:58;;;;;;;3.93;2.90;;;;;;;23.36;28.07;96509.69;5052907;28;20912;-69
2021/06/02 07:02:24;;;;;;;6.43;2.87;;;;;;;22.96;28.37;96508.13;5046238;28;20458;-69
2021/06/02 07:04:50;;;;;;;8.03;2.57;;;;;;;23.04;27.88;96499.69;5053914;28;20434;-69
2021/06/02 07:07:16;;;;;;;2.30;1.97;;;;;;;23.53;26.83;96503.44;5053031;28;20206;-69
2021/06/02 07:09:42;;;;;;;2.10;2.00;;;;;;;23.66;26.49;96500.34;5054172;28;20417;-69
2021/06/02 07:12:08;;;;;;;6.60;2.50;;;;;;;23.19;27.62;96507.06;5033508;28;20505;-69
2021/06/02 07:14:36;;;;;;;2.90;2.30;;;;;;;23.40;27.79;96501.94;5039343;28;20187;-70
2021/06/02 07:17:05;;;;;;;7.90;2.30;;;;;;;23.68;27.96;96502.75;5058616;28;20429;-68
2021/06/02 07:19:32;;;;;;;4.87;2.43;;;;;;;24.14;27.77;96510.41;5062655;28;20450;-67
2021/06/02 07:21:58;;;;;;;4.53;2.40;;;;;;;24.37;27.83;96510.00;5055480;28;20449;-67
2021/06/02 07:24:25;;;;;;;5.30;2.60;;;;;;;24.54;27.09;96515.19;5060841;28;20444;-67
2021/06/02 07:26:50;;;;;;;6.60;2.83;;;;;;;24.38;27.38;96511.63;5061297;28;20426;-69
2021/06/02 07:29:16;;;;;;;3.00;2.70;;;;;;;24.86;26.49;96510.84;5058102;28;21029;-67
2021/06/02 07:31:42;;;;;;;3.20;2.30;;;;;;;24.72;26.61;96513.19;5046660;28;20373;-68
2021/06/02 07:34:08;;;;;;;3.10;2.23;;;;;;;24.94;26.72;96517.56;5050083;28;20421;-69
2021/06/02 07:36:33;;;;;;;6.70;2.53;;;;;;;25.18;26.41;96520.63;5059502;28;20180;-70
2021/06/02 07:39:00;;;;;;;3.73;2.60;;;;;;;25.05;26.42;96516.53;5059595;28;20203;-70
2021/06/02 07:41:26;;;;;;;2.80;2.30;;;;;;;24.93;26.60;96521.31;5059446;28;20211;-68
2021/06/02 07:43:52;;;;;;;3.90;2.53;;;;;;;25.14;26.04;96522.22;5060400;28;20453;-67
2021/06/02 07:46:17;;;;;;;5.60;2.60;;;;;;;25.04;26.73;96522.16;5051395;28;20967;-68
2021/06/02 07:48:43;;;;;;;4.43;2.90;;;;;;;25.08;27.04;96526.75;5053169;28;20204;-68
2021/06/02 07:51:09;;;;;;;6.23;2.10;;;;;;;25.45;26.01;96519.66;5050792;28;20244;-68
2021/06/02 07:53:35;;;;;;;5.53;2.17;;;;;;;25.42;26.17;96522.84;5058589;28;20209;-68
2021/06/02 07:56:00;;;;;;;8.33;2.73;;;;;;;25.48;26.73;96510.25;5041276;28;20267;-67
2021/06/02 07:58:26;;;;;;;7.13;2.27;;;;;;;25.75;26.17;96526.13;5029325;28;20212;-68
2021/06/02 08:00:52;;;;;;;4.70;3.13;;;;;;;25.96;26.14;96526.16;5039023;28;20176;-68
2021/06/02 08:03:17;;;;;;;3.30;2.23;;;;;;;25.95;25.83;96525.34;5046247;28;20298;-68
2021/06/02 08:05:43;;;;;;;4.37;2.23;;;;;;;26.31;25.66;96525.34;5059212;28;20178;-68
2021/06/02 08:08:09;;;;;;;3.00;2.20;;;;;;;26.22;25.11;96524.28;5058353;28;20683;-69
2021/06/02 08:10:35;;;;;;;3.53;2.37;;;;;;;26.37;25.50;96516.22;5050892;28;20234;-69
2021/06/02 08:13:02;;;;;;;3.20;2.30;;;;;;;26.47;25.35;96526.13;5058714;28;20429;-67
2021/06/02 08:15:28;;;;;;;4.50;2.23;;;;;;;26.27;26.09;96523.47;5047904;28;20487;-68
2021/06/02 08:17:54;;;;;;;2.73;2.43;;;;;;;26.65;25.60;96519.34;5051931;28;20445;-67
2021/06/02 08:20:20;;;;;;;7.93;2.53;;;;;;;26.86;25.34;96523.91;5053631;28;20790;-67
2021/06/02 08:22:45;;;;;;;3.00;2.40;;;;;;;26.79;25.45;96525.00;5051071;28;20214;-67
2021/06/02 08:25:13;;;;;;;5.20;2.60;;;;;;;26.85;25.54;96530.34;5058428;28;20175;-68
2021/06/02 08:27:39;;;;;;;4.80;2.57;;;;;;;26.52;26.28;96528.81;5041706;28;20630;-67
2021/06/02 08:30:07;;;;;;;6.20;2.77;;;;;;;27.02;25.33;96528.16;5048853;28;20424;-68
2021/06/02 08:32:33;;;;;;;7.23;2.43;;;;;;;26.96;24.85;96526.56;5057929;28;20772;-68
2021/06/02 08:34:58;;;;;;;3.40;2.43;;;;;;;27.19;23.76;96535.06;5058280;28;20448;-68
2021/06/02 08:37:24;;;;;;;4.90;2.40;;;;;;;26.86;24.17;96534.66;5058919;28;20630;-69
2021/06/02 08:39:50;;;;;;;4.93;2.10;;;;;;;27.19;23.04;96535.06;5058588;28;20664;-68
2021/06/02 08:42:16;;;;;;;3.83;2.40;;;;;;;27.08;22.83;96529.75;5057033;28;20209;-68
2021/06/02 08:44:42;;;;;;;4.63;2.40;;;;;;;27.09;22.84;96530.53;5051981;28;20274;-66
2021/06/02 08:47:08;;;;;;;2.07;1.97;;;;;;;27.35;21.33;96533.09;5055603;28;20418;-67
2021/06/02 08:49:34;;;;;;;4.77;2.00;;;;;;;27.68;20.81;96536.16;5058759;28;20199;-68
2021/06/02 08:52:04;;;;;;;4.33;2.00;;;;;;;27.78;20.60;96533.44;5053345;28;20716;-68
2021/06/02 08:54:30;;;;;;;2.20;2.00;;;;;;;27.68;21.44;96533.47;5058321;28;20437;-68
2021/06/02 08:56:56;;;;;;;8.10;2.57;;;;;;;27.90;21.31;96541.94;5054032;28;20430;-68
2021/06/02 08:59:22;;;;;;;5.33;2.23;;;;;;;28.10;20.37;96542.88;5055299;28;20200;-68
2021/06/02 09:01:49;;;;;;;3.33;2.60;;;;;;;27.23;21.87;96534.25;5042932;28;20524;-69
2021/06/02 09:04:16;;;;;;;5.97;2.67;;;;;;;28.01;21.61;96534.56;5057350;28;20794;-69
2021/06/02 09:06:43;;;;;;;6.27;2.10;;;;;;;28.40;21.28;96535.63;5060974;28;20421;-66
2021/06/02 09:09:11;;;;;;;4.27;2.50;;;;;;;28.28;21.69;96537.91;5058851;28;20201;-68
2021/06/02 09:11:39;;;;;;;6.30;2.50;;;;;;;28.42;21.49;96538.03;5055867;28;20424;-67
2021/06/02 09:14:26;;;;;;;2.97;2.10;;;;;;;28.91;21.41;96533.53;5060515;28;20432;-68
2021/06/02 09:16:57;;;;;;;3.20;2.30;;;;;;;28.85;21.87;96530.09;5062306;28;20439;-68
2021/06/02 09:19:44;;;;;;;7.30;2.20;;;;;;;28.18;22.52;96544.19;5066975;28;20437;-69
2021/06/02 09:22:15;;;;;;;4.73;1.87;;;;;;;28.21;22.20;96538.22;5040729;28;20528;-68
2021/06/02 09:24:50;;;;;;;4.43;2.30;;;;;;;28.53;22.16;96539.53;5054641;28;20459;-67
2021/06/02 09:27:16;;;;;;;7.30;1.90;;;;;;;28.51;22.08;96545.22;5061754;28;20421;-68
2021/06/02 09:29:48;;;;;;;3.30;2.30;;;;;;;28.54;21.67;96541.16;5067383;28;20446;-67
2021/06/02 09:32:17;;;;;;;2.80;2.40;;;;;;;29.10;20.96;96538.97;5066441;28;20837;-71
2021/06/02 09:34:42;;;;;;;3.30;2.30;;;;;;;29.09;20.95;96537.34;5061539;28;20429;-69
2021/06/02 09:37:08;;;;;;;2.60;2.40;;;;;;;28.58;21.28;96546.75;5054896;28;20505;-68
2021/06/02 09:39:44;;;;;;;2.27;2.00;;;;;;;28.44;21.32;96546.66;5029199;28;20592;-67
2021/06/02 09:42:29;;;;;;;6.20;2.40;;;;;;;28.77;20.87;96528.00;5038732;28;20234;-70
2021/06/02 09:45:06;;;;;;;5.53;2.43;;;;;;;28.74;21.14;96528.56;5051112;28;20420;-68
2021/06/02 09:47:42;;;;;;;5.40;3.43;;;;;;;28.40;21.50;96530.25;5041670;28;20428;-69
2021/06/02 09:50:08;;;;;;;2.73;2.07;;;;;;;28.38;21.66;96534.28;5056052;28;20455;-69
2021/06/02 09:52:40;;;;;;;6.13;1.93;;;;;;;28.54;22.18;96530.38;5042725;28;20414;-70
2021/06/02 09:55:12;;;;;;;4.40;2.30;;;;;;;29.04;21.19;96534.69;5052874;28;20446;-69
2021/06/02 09:57:38;;;;;;;2.93;2.27;;;;;;;28.99;21.04;96530.19;5054771;28;20442;-70
2021/06/02 10:00:05;;;;;;;6.43;2.53;;;;;;;28.99;21.17;96535.56;5054958;28;20547;-70
2021/06/02 10:02:30;;;;;;;4.50;2.03;;;;;;;29.16;21.04;96540.50;5055282;28;20198;-70
2021/06/02 10:05:04;;;;;;;6.03;2.13;;;;;;;29.43;20.53;96536.41;5054779;28;20421;-69
2021/06/02 10:07:31;;;;;;;4.47;1.90;;;;;;;29.88;20.18;96536.81;5023648;28;20247;-69
2021/06/02 10:10:14;;;;;;;2.03;1.93;;;;;;;29.76;20.25;96533.75;5043446;28;20437;-70
2021/06/02 10:13:22;;;;;;;4.27;2.67;;;;;;;29.35;20.60;96539.75;5042337;28;20413;-71
2021/06/02 10:15:52;;;;;;;3.00;2.67;;;;;;;28.99;20.56;96537.44;5045574;28;20417;-70
2021/06/02 10:18:32;;;;;;;4.03;2.50;;;;;;;28.54;21.15;96541.16;5054241;28;20449;-70
2021/06/02 10:21:02;;;;;;;4.60;2.37;;;;;;;28.93;21.13;96542.91;5047335;28;21090;-70
2021/06/02 10:23:30;;;;;;;6.53;2.90;;;;;;;29.03;20.66;96542.00;5053981;28;20524;-71
2021/06/02 10:26:00;;;;;;;8.53;2.83;;;;;;;29.48;20.01;96541.72;5045782;28;20418;-70
2021/06/02 10:28:27;;;;;;;4.53;2.20;;;;;;;29.53;20.37;96544.34;5037602;28;20529;-69
2021/06/02 10:30:53;;;;;;;2.60;2.20;;;;;;;29.49;20.65;96540.63;5046288;28;20446;-70
2021/06/02 10:33:19;;;;;;;3.43;2.60;;;;;;;29.95;19.81;96538.38;5053620;28;20476;-70
2021/06/02 10:35:45;;;;;;;4.80;2.10;;;;;;;30.39;19.59;96528.97;5053604;28;20426;-70
2021/06/02 10:38:12;;;;;;;2.93;2.20;;;;;;;30.63;18.88;96536.97;5052531;28;20199;-71
2021/06/02 10:40:39;;;;;;;2.90;2.40;;;;;;;30.74;19.09;96543.00;5053119;28;20271;-70
2021/06/02 10:43:09;;;;;;;6.67;3.37;;;;;;;29.76;20.30;96541.84;5052986;28;20414;-70
2021/06/02 10:45:49;;;;;;;2.40;2.20;;;;;;;30.13;19.67;96542.13;5053123;28;20449;-69
2021/06/02 10:48:15;;;;;;;3.30;2.60;;;;;;;29.25;21.14;96536.03;5052913;28;20445;-69
2021/06/02 10:50:42;;;;;;;2.80;2.40;;;;;;;30.12;20.28;96544.00;5054080;28;20975;-70
2021/06/02 10:53:27;;;;;;;2.90;2.30;;;;;;;30.53;19.94;96539.00;5050216;28;20560;-70
2021/06/02 10:55:58;;;;;;;6.40;2.13;;;;;;;30.16;19.78;96544.25;5055255;28;20413;-70
2021/06/02 10:58:34;;;;;;;3.00;2.00;;;;;;;30.41;19.53;96544.91;5039245;28;20450;-72
2021/06/02 11:01:09;;;;;;;2.27;2.07;;;;;;;30.43;19.81;96532.69;5047100;28;20797;-71
2021/06/02 11:03:36;;;;;;;3.67;2.40;;;;;;;29.69;20.51;96536.03;5054821;28;20452;-69
2021/06/02 11:06:13;;;;;;;2.60;2.40;;;;;;;30.36;20.11;96534.19;5054371;28;20501;-71
2021/06/02 11:08:48;;;;;;;2.07;1.90;;;;;;;30.09;19.75;96535.72;5053832;28;20479;-72
2021/06/02 11:11:29;;;;;;;3.53;2.00;;;;;;;30.41;19.78;96540.28;5044770;28;20441;-71
2021/06/02 11:14:16;;;;;;;6.30;1.80;;;;;;;30.01;19.91;96543.41;5027039;28;20411;-69
2021/06/02 11:16:45;;;;;;;4.97;2.63;;;;;;;28.62;21.16;96543.22;5025397;28;20529;-69
2021/06/02 11:19:14;;;;;;;5.87;3.03;;;;;;;29.34;20.29;96540.84;5045284;28;20448;-70
2021/06/02 11:21:51;;;;;;;4.30;2.53;;;;;;;28.69;21.00;96544.78;5047398;28;20453;-68
2021/06/02 11:24:32;;;;;;;2.33;2.13;;;;;;;28.75;20.77;96538.25;5046228;28;20423;-67
2021/06/02 11:27:10;;;;;;;3.50;2.17;;;;;;;29.71;20.79;96537.34;5031306;28;20411;-68
2021/06/02 11:29:56;;;;;;;4.10;2.30;;;;;;;29.35;20.26;96547.84;5027620;28;20449;-67
2021/06/02 11:32:32;;;;;;;2.63;2.43;;;;;;;29.34;20.48;96538.94;5036926;28;20418;-67
2021/06/02 11:35:04;;;;;;;2.90;2.27;;;;;;;30.28;19.85;96535.66;5025508;28;20776;-68
2021/06/02 11:37:32;;;;;;;5.00;2.30;;;;;;;30.91;19.03;96541.56;5048917;28;20909;-68
2021/06/02 11:40:00;;;;;;;2.70;2.50;;;;;;;30.07;19.91;96544.13;5030296;28;20470;-71
2021/06/02 11:42:39;;;;;;;7.13;2.80;;;;;;;30.68;19.05;96538.75;5052514;28;20453;-69
2021/06/02 11:45:06;;;;;;;2.87;2.10;;;;;;;30.09;19.51;96552.72;5052426;28;20479;-69
2021/06/02 11:47:32;;;;;;;4.90;2.17;;;;;;;30.86;18.77;96536.28;5038528;28;20944;-69
2021/06/02 11:50:21;;;;;;;8.00;2.77;;;;;;;29.54;19.91;96548.66;5032434;28;20427;-68
2021/06/02 11:53:01;;;;;;;6.13;2.43;;;;;;;30.41;19.40;96543.00;5039614;28;20928;-67
2021/06/02 11:55:28;;;;;;;4.77;2.60;;;;;;;31.08;18.83;96541.78;5052636;28;20912;-68
2021/06/02 11:57:54;;;;;;;3.93;2.63;;;;;;;30.98;19.00;96542.00;5053014;28;20528;-67
2021/06/02 12:00:21;;;;;;;4.70;2.40;;;;;;;31.60;18.27;96540.72;5054636;28;20427;-68
2021/06/02 12:02:52;;;;;;;5.47;2.60;;;;;;;31.92;17.83;96544.34;5052939;28;20979;-68
2021/06/02 12:05:19;;;;;;;9.30;3.20;;;;;;;31.93;17.49;96537.81;5055061;28;20987;-68
2021/06/02 12:07:48;;;;;;;6.77;2.20;;;;;;;31.76;17.51;96540.41;5048757;28;20454;-69
2021/06/02 12:10:15;;;;;;;4.33;2.20;;;;;;;31.84;17.36;96539.66;5034178;28;20950;-68
2021/06/02 12:12:43;;;;;;;5.57;2.23;;;;;;;32.05;17.24;96539.16;5042874;28;20417;-67
2021/06/02 12:15:10;;;;;;;4.60;2.00;;;;;;;33.05;16.87;96545.28;5048220;28;20432;-68
2021/06/02 12:17:36;;;;;;;3.97;2.10;;;;;;;33.40;16.02;96548.09;5045254;28;20520;-69
2021/06/02 12:20:08;;;;;;;7.07;2.20;;;;;;;33.30;16.21;96542.94;5061142;28;20429;-67
2021/06/02 12:22:35;;;;;;;6.07;2.30;;;;;;;33.03;16.28;96547.50;5034861;28;20552;-69
2021/06/02 12:25:08;;;;;;;3.90;2.47;;;;;;;33.12;15.89;96547.53;5054231;28;20426;-68
2021/06/02 12:27:54;;;;;;;5.00;2.50;;;;;;;31.55;17.31;96540.81;5057450;28;20806;-68
2021/06/02 12:30:25;;;;;;;7.03;2.40;;;;;;;32.66;16.73;96541.44;5034336;28;20467;-67
2021/06/02 12:33:03;;;;;;;4.73;1.93;;;;;;;32.42;16.77;96550.72;5042965;28;20421;-68
2021/06/02 12:35:32;;;;;;;2.90;2.10;;;;;;;32.29;16.87;96544.28;5043813;28;20425;-67
2021/06/02 12:38:05;;;;;;;3.10;1.80;;;;;;;32.21;16.75;96543.09;5056468;28;20445;-68
2021/06/02 12:40:35;;;;;;;5.33;2.03;;;;;;;32.30;16.90;96541.25;5039964;28;20452;-68
2021/06/02 12:43:01;;;;;;;2.70;1.80;;;;;;;30.99;17.99;96542.78;5041635;28;20459;-67
2021/06/02 12:45:29;;;;;;;4.90;2.47;;;;;;;32.67;17.17;96532.19;5056839;28;20429;-68
2021/06/02 12:47:55;;;;;;;3.30;1.80;;;;;;;32.06;17.57;96529.91;5033840;28;20452;-67
2021/06/02 12:50:40;;;;;;;3.47;2.27;;;;;;;32.34;17.00;96537.94;5049984;28;21035;-67
2021/06/02 12:53:06;;;;;;;1.80;1.70;;;;;;;32.17;17.20;96536.69;5048872;28;20421;-68
2021/06/02 12:55:46;;;;;;;5.47;1.90;;;;;;;31.81;17.24;96535.66;5059638;28;20426;-68
2021/06/02 12:58:15;;;;;;;6.17;2.53;;;;;;;31.05;17.74;96536.19;5058282;28;20437;-68
2021/06/02 13:00:42;;;;;;;6.67;2.03;;;;;;;32.25;16.85;96543.31;5054231;28;20425;-66
2021/06/02 13:03:11;;;;;;;2.10;1.90;;;;;;;32.78;16.55;96531.59;5059892;28;20598;-65
2021/06/02 13:05:37;;;;;;;5.57;2.80;;;;;;;32.41;16.72;96541.00;5063082;28;20440;-68
2021/06/02 13:08:07;;;;;;;6.17;1.80;;;;;;;32.51;16.43;96543.47;5065580;28;20536;-67
2021/06/02 13:10:33;;;;;;;3.40;1.93;;;;;;;32.61;16.57;96535.06;5062139;28;20179;-67
2021/06/02 13:13:00;;;;;;;3.20;1.93;;;;;;;33.22;16.26;96536.38;5067023;28;20426;-67
2021/06/02 13:15:32;;;;;;;2.20;2.00;;;;;;;33.02;16.39;96537.75;5047488;28;20427;-66
2021/06/02 13:17:59;;;;;;;3.60;2.07;;;;;;;33.68;15.98;96536.94;5052339;28;20456;-66
2021/06/02 13:20:33;;;;;;;2.33;2.07;;;;;;;32.91;16.08;96554.31;5062184;28;20433;-67
2021/06/02 13:23:07;;;;;;;3.00;2.00;;;;;;;32.63;16.74;96542.88;5056221;28;20453;-66
2021/06/02 13:25:33;;;;;;;3.13;1.73;;;;;;;32.80;16.17;96539.44;5064995;28;20420;-67
2021/06/02 13:27:59;;;;;;;5.87;2.00;;;;;;;33.67;16.03;96546.19;5062016;28;20442;-69
2021/06/02 13:30:36;;;;;;;11.70;4.50;;;;;;;33.76;15.51;96543.50;5063738;28;20183;-66
2021/06/02 13:33:01;;;;;;;4.63;2.30;;;;;;;33.80;15.05;96539.03;5058408;28;20440;-68
2021/06/02 13:35:27;;;;;;;15.37;3.53;;;;;;;34.60;14.97;96549.47;5047428;28;21273;-67
2021/06/02 13:37:52;;;;;;;3.73;2.03;;;;;;;35.34;14.29;96554.75;5034138;28;20290;-68
2021/06/02 13:40:21;;;;;;;5.10;1.80;;;;;;;34.12;15.72;96539.66;5037683;28;20278;-68
2021/06/02 13:43:09;;;;;;;2.80;1.97;;;;;;;34.05;15.68;96556.44;5035558;28;20234;-67
2021/06/02 13:45:54;;;;;;;2.13;1.93;;;;;;;33.26;16.21;96544.72;5040900;28;20454;-68
2021/06/02 13:48:31;;;;;;;6.63;2.33;;;;;;;31.85;17.28;96549.38;5059769;28;20773;-68
2021/06/02 13:51:24;;;;;;;3.90;2.10;;;;;;;31.66;17.75;96542.19;5051617;28;20417;-69
2021/06/02 13:54:17;;;;;;;4.20;2.00;;;;;;;32.20;16.92;96549.63;5049720;28;20469;-68
2021/06/02 13:56:53;;;;;;;7.80;3.67;;;;;;;32.43;16.90;96550.44;5047323;28;20468;-68
2021/06/02 13:59:29;;;;;;;33.23;10.77;;;;;;;32.57;17.04;96554.97;5044514;28;21003;-69
2021/06/02 14:01:59;;;;;;;11.10;4.77;;;;;;;32.29;16.96;96555.91;5007312;28;20533;-70
2021/06/02 14:04:26;;;;;;;8.10;2.00;;;;;;;31.67;17.81;96546.50;5033725;28;20432;-69
2021/06/02 14:06:56;;;;;;;3.37;2.60;;;;;;;33.43;16.39;96538.53;5051058;28;20444;-68
2021/06/02 14:09:23;;;;;;;4.53;1.87;;;;;;;33.83;15.68;96544.59;5049448;28;20939;-69
2021/06/02 14:11:49;;;;;;;2.77;2.30;;;;;;;34.18;15.61;96551.16;5019074;28;20422;-69
2021/06/02 14:14:15;;;;;;;2.27;1.90;;;;;;;34.44;15.03;96543.75;5050279;28;20433;-68
2021/06/02 14:16:41;;;;;;;2.47;1.70;;;;;;;33.86;15.82;96545.88;5041165;28;20183;-69
2021/06/02 14:19:07;;;;;;;3.33;1.70;;;;;;;31.91;17.15;96553.56;5061217;28;20457;-69
2021/06/02 14:21:34;;;;;;;2.90;1.60;;;;;;;32.05;17.19;96555.41;5049971;28;20539;-69
2021/06/02 14:24:01;;;;;;;3.03;2.00;;;;;;;32.12;17.31;96553.09;5040293;28;20225;-69